Eikamaru No.2 — JD3056 — position and weather

sailwx.info

Track history (hours):
 
Tides and Currents Weather Stations Pressure Air Temp Water Temp Dewpoint Dewpoint Depression Visibility Wind Speed Wind Dir Waves Ship Positions

Eikamaru No.2

Last reported at 2014-Aug-01 11:08 UTC. Time now 2014-Aug-01 15:56 UTC.
Position N 34°07' E 132°39'.

Length 60 m; draft 3.3 m.

Type: Tanker. MMSI: 431001342.

Date/timePositionNaut miles runAvg speedWind from/ knotsBaromVisibWave heightAir tempDewpointWater temp
2014-Aug-01 11:08N 34°07' E 132°39'1110.1
2014-Aug-01 10:04N 34°05' E 132°27'612.3
2014-Aug-01 09:33N 34°08' E 132°21'8 7.9
2014-Aug-01 08:33N 34°14' E 132°14'0 0.0
2014-Aug-01 07:33N 34°14' E 132°14'0 0.0
2014-Aug-01 06:33N 34°14' E 132°14'0 0.0
2014-Aug-01 05:33N 34°14' E 132°14'0 0.0
2014-Aug-01 04:33N 34°14' E 132°14'1 0.5
2014-Aug-01 03:33N 34°14' E 132°14'22 1.5
2014-Jul-31 12:33N 34°04' E 132°38'1 0.1
2014-Jul-30 14:26N 34°02' E 132°38'  
2014-Jul-28 08:16N 34°11' E 132°33'710.6
2014-Jul-28 07:33N 34°18' E 132°29'2 2.2
2014-Jul-28 06:33N 34°20' E 132°30'0 0.0
2014-Jul-28 05:31N 34°20' E 132°30'1 1.0
2014-Jul-28 04:33N 34°19' E 132°29'1010.2
2014-Jul-28 03:33N 34°11' E 132°22'18 0.5
2014-Jul-26 13:18N 34°03' E 132°42'  
2014-Jul-22 12:04N 33°58' E 132°44'  
Track history (hours):
 
Tides and Currents Weather Stations Pressure Air Temp Water Temp Dewpoint Dewpoint Depression Visibility Wind Speed Wind Dir Waves Ship Positions

Eikamaru No.2

Last reported at 2014-Aug-01 11:08 UTC. Time now 2014-Aug-01 15:56 UTC.
Position N 34°07' E 132°39'.

Length 60 m; draft 3.3 m.

Type: Tanker. MMSI: 431001342.

Date/timePositionNaut miles runAvg speedWind from/ knotsBaromVisibWave heightAir tempDewpointWater temp
2014-Aug-01 11:08N 34°07' E 132°39'1110.1
2014-Aug-01 10:04N 34°05' E 132°27'612.3
2014-Aug-01 09:33N 34°08' E 132°21'8 7.9
2014-Aug-01 08:33N 34°14' E 132°14'0 0.0
2014-Aug-01 07:33N 34°14' E 132°14'0 0.0
2014-Aug-01 06:33N 34°14' E 132°14'0 0.0
2014-Aug-01 05:33N 34°14' E 132°14'0 0.0
2014-Aug-01 04:33N 34°14' E 132°14'1 0.5
2014-Aug-01 03:33N 34°14' E 132°14'22 1.5
2014-Jul-31 12:33N 34°04' E 132°38'1 0.1
2014-Jul-30 14:26N 34°02' E 132°38'  
2014-Jul-28 08:16N 34°11' E 132°33'710.6
2014-Jul-28 07:33N 34°18' E 132°29'2 2.2
2014-Jul-28 06:33N 34°20' E 132°30'0 0.0
2014-Jul-28 05:31N 34°20' E 132°30'1 1.0
2014-Jul-28 04:33N 34°19' E 132°29'1010.2
2014-Jul-28 03:33N 34°11' E 132°22'18 0.5
2014-Jul-26 13:18N 34°03' E 132°42'  
2014-Jul-22 12:04N 33°58' E 132°44'  

Dump ship's entire track history